YDRN weather

Drouin Airport
Drouin, Victoria, Australia

Public forecast

Using degrees Celsius for public forecast. Weather courtesy of forecast.io.

METAR (pilot weather report)

Closest report is Melbourne Essendon Airport, 52.6 nm (97.4 km) WNW. Retrieved 2019/04/21 11:00 UTC (44 minutes ago):

YMEN 211100Z AUTO 23014KT 9999 // OVC021 17/12 Q1021

TAF (pilot weather forecast)

Forecast is more than 12 hours old.

Closest forecast is Melbourne International Airport, 56.8 nm (105.1 km) NW. Retrieved 2019/04/20 18:00 UTC (18 hours ago):

TAF YMML 201706Z 2018/2124 36014KT CAVOK FM202200 01020G30KT CAVOK FM210400 35012KT 9999 -SHRA FEW050 SCT080 FM211100 24013KT 9999 -SHRA SCT015 BKN020 FM211600 21010KT 9999 -SHRA SCT010 BKN015 BECMG 2121/2123 24010KT 9999 -SHRA SCT018 BKN025 INTER 2112/2116 5000 SHRA BKN012 TEMPO 2116/2122 5000 SHRA BKN010 PROB30 INTER 2105/2109 VRB20G35KT 3000 TSRA SCT040 SCT090CB